createdAt,value
2023-05-10T00:01:29.581Z,15.90
2023-05-10T00:03:56.566Z,15.90
2023-05-10T00:06:23.557Z,15.90
2023-05-10T00:08:50.482Z,15.90
2023-05-10T00:11:17.375Z,15.90
2023-05-10T00:13:44.282Z,15.80
2023-05-10T00:16:11.246Z,15.80
2023-05-10T00:18:38.174Z,15.80
2023-05-10T00:21:05.866Z,15.80
2023-05-10T00:23:32.823Z,15.70
2023-05-10T00:25:59.725Z,15.70
2023-05-10T00:28:29.353Z,15.70
2023-05-10T00:30:57.184Z,15.70
2023-05-10T00:33:24.150Z,15.70
2023-05-10T00:35:51.099Z,15.70
2023-05-10T00:38:18.456Z,15.60
2023-05-10T00:40:45.380Z,15.60
2023-05-10T00:43:20.143Z,15.60
2023-05-10T00:45:48.257Z,15.50
2023-05-10T00:48:15.281Z,15.50
2023-05-10T00:50:42.280Z,15.50
2023-05-10T00:53:09.892Z,15.40
2023-05-10T00:55:37.282Z,15.40
2023-05-10T00:58:05.029Z,15.30
2023-05-10T01:00:33.915Z,15.30
2023-05-10T01:03:01.657Z,15.20
2023-05-10T01:05:28.682Z,15.20
2023-05-10T01:07:55.698Z,15.20
2023-05-10T01:10:22.956Z,15.10
2023-05-10T01:12:49.945Z,15.10
2023-05-10T01:15:17.795Z,15.00
2023-05-10T01:17:47.107Z,15.00
2023-05-10T01:20:15.153Z,14.90
2023-05-10T01:23:11.779Z,14.90
2023-05-10T01:26:56.630Z,14.90
2023-05-10T01:29:42.241Z,14.80
2023-05-10T01:32:30.593Z,14.70
2023-05-10T01:35:24.322Z,14.70
2023-05-10T01:38:20.214Z,14.70
2023-05-10T01:41:13.300Z,14.70
2023-05-10T01:44:01.653Z,14.70
2023-05-10T01:46:40.903Z,14.60
2023-05-10T01:49:19.639Z,14.60
2023-05-10T01:51:55.774Z,14.50
2023-05-10T01:54:25.215Z,14.50
2023-05-10T01:57:01.286Z,14.50
2023-05-10T01:59:37.178Z,14.40
2023-05-10T02:02:07.015Z,14.40
2023-05-10T02:04:38.422Z,14.30
2023-05-10T02:07:07.152Z,14.30
2023-05-10T02:09:35.717Z,14.30
2023-05-10T02:12:05.204Z,14.30
2023-05-10T02:14:37.176Z,14.20
2023-05-10T02:17:06.341Z,14.20
2023-05-10T02:19:35.413Z,14.20
2023-05-10T02:22:03.555Z,14.20
2023-05-10T02:24:31.160Z,14.10
2023-05-10T02:26:58.722Z,14.10
2023-05-10T02:29:27.917Z,14.10
2023-05-10T02:31:56.892Z,14.10
2023-05-10T02:34:26.863Z,14.10
2023-05-10T02:36:55.080Z,14.10
2023-05-10T02:39:23.421Z,14.00
2023-05-10T02:41:52.238Z,14.00
2023-05-10T02:44:21.010Z,14.00
2023-05-10T02:46:48.870Z,13.90
2023-05-10T02:49:16.606Z,13.90
2023-05-10T02:51:49.029Z,13.80
2023-05-10T02:54:28.656Z,13.80
2023-05-10T02:57:00.478Z,13.70
2023-05-10T02:59:28.170Z,13.70
2023-05-10T03:01:55.317Z,13.70
2023-05-10T03:04:22.747Z,13.60
2023-05-10T03:06:49.864Z,13.60
2023-05-10T03:09:16.857Z,13.60
2023-05-10T03:12:08.120Z,13.60
2023-05-10T03:14:55.151Z,13.60
2023-05-10T03:17:47.800Z,13.50
2023-05-10T03:20:26.233Z,13.50
2023-05-10T03:22:58.467Z,13.50
2023-05-10T03:25:25.722Z,13.50
2023-05-10T03:27:55.108Z,13.50
2023-05-10T03:30:22.703Z,13.40
2023-05-10T03:32:49.675Z,13.40
2023-05-10T03:35:18.529Z,13.40
2023-05-10T03:37:45.641Z,13.40
2023-05-10T03:40:12.774Z,13.40
2023-05-10T03:42:42.263Z,13.30
2023-05-10T03:45:10.672Z,13.30
2023-05-10T03:47:37.726Z,13.30
2023-05-10T03:50:05.911Z,13.30
2023-05-10T03:52:33.612Z,13.30
2023-05-10T03:55:00.528Z,13.30
2023-05-10T03:57:27.561Z,13.30
2023-05-10T03:59:54.493Z,13.30
2023-05-10T04:02:21.405Z,13.30
2023-05-10T04:04:49.213Z,13.30
2023-05-10T04:07:16.130Z,13.30
2023-05-10T04:09:43.104Z,13.30
2023-05-10T04:12:10.954Z,13.40
2023-05-10T04:14:38.299Z,13.50
2023-05-10T04:17:05.270Z,13.60
2023-05-10T04:19:33.038Z,13.80
2023-05-10T04:22:00.255Z,13.90
2023-05-10T04:24:27.170Z,14.10
2023-05-10T04:26:57.780Z,14.20
2023-05-10T04:29:25.153Z,14.30
2023-05-10T04:31:52.089Z,14.30
2023-05-10T04:34:19.525Z,14.40
2023-05-10T04:36:46.421Z,14.50
2023-05-10T04:39:14.659Z,14.50
2023-05-10T04:41:41.569Z,14.60
2023-05-10T04:44:08.433Z,14.60
2023-05-10T04:46:35.421Z,14.60
2023-05-10T04:49:02.533Z,14.60
2023-05-10T04:51:29.417Z,14.70
2023-05-10T04:54:05.217Z,14.70
2023-05-10T04:56:33.235Z,14.70
2023-05-10T04:59:00.133Z,14.70
2023-05-10T05:01:27.143Z,14.80
2023-05-10T05:03:54.393Z,14.80
2023-05-10T05:06:25.880Z,14.90
2023-05-10T05:08:52.939Z,14.90
2023-05-10T05:11:19.833Z,15.00
2023-05-10T05:13:46.705Z,15.00
2023-05-10T05:16:13.777Z,15.10
2023-05-10T05:18:40.767Z,15.10
2023-05-10T05:21:17.691Z,15.10
2023-05-10T05:23:44.770Z,15.20
2023-05-10T05:26:11.819Z,15.30
2023-05-10T05:28:39.774Z,15.30
2023-05-10T05:31:10.201Z,15.40
2023-05-10T05:33:37.953Z,15.40
2023-05-10T05:36:06.603Z,15.50
2023-05-10T05:38:33.603Z,15.50
2023-05-10T05:41:00.528Z,15.50
2023-05-10T05:43:27.450Z,15.60
2023-05-10T05:45:54.992Z,15.60
2023-05-10T05:48:22.240Z,15.70
2023-05-10T05:50:49.111Z,15.70
2023-05-10T05:53:16.716Z,15.70
2023-05-10T05:55:55.151Z,15.80
2023-05-10T05:58:26.112Z,15.90
2023-05-10T06:00:53.599Z,15.90
2023-05-10T06:03:21.114Z,15.90
2023-05-10T06:05:48.078Z,16.00
2023-05-10T06:08:14.931Z,16.10
2023-05-10T06:10:41.776Z,16.10
2023-05-10T06:13:08.745Z,16.20
2023-05-10T06:15:35.681Z,16.20
2023-05-10T06:18:02.573Z,16.30
2023-05-10T06:20:29.509Z,16.40
2023-05-10T06:22:56.386Z,16.40
2023-05-10T06:25:23.259Z,16.50
2023-05-10T06:27:52.901Z,16.60
2023-05-10T06:30:21.199Z,16.70
2023-05-10T06:32:48.166Z,16.70
2023-05-10T06:35:15.333Z,16.80
2023-05-10T06:37:42.365Z,16.80
2023-05-10T06:40:10.320Z,16.90
2023-05-10T06:42:37.313Z,17.00
2023-05-10T06:45:04.730Z,17.00
2023-05-10T06:47:31.704Z,17.10
2023-05-10T06:49:58.619Z,17.20
2023-05-10T06:52:25.568Z,17.30
2023-05-10T06:54:52.427Z,17.40
2023-05-10T06:57:30.413Z,17.40
2023-05-10T06:59:58.467Z,17.50
2023-05-10T07:02:25.373Z,17.50
2023-05-10T07:04:53.029Z,17.60
2023-05-10T07:07:20.190Z,17.60
2023-05-10T07:09:47.328Z,17.70
2023-05-10T07:12:15.414Z,17.70
2023-05-10T07:14:43.222Z,17.80
2023-05-10T07:17:10.874Z,17.90
2023-05-10T07:19:37.818Z,18.00
2023-05-10T07:22:04.744Z,18.00
2023-05-10T07:24:32.272Z,18.10
2023-05-10T07:26:59.289Z,18.20
2023-05-10T07:29:26.420Z,18.30
2023-05-10T07:31:54.479Z,18.40
2023-05-10T07:34:22.407Z,18.50
2023-05-10T07:36:49.297Z,18.50
2023-05-10T07:39:21.332Z,18.60
2023-05-10T07:41:53.833Z,18.70
2023-05-10T07:44:21.349Z,18.80
2023-05-10T07:46:49.027Z,18.90
2023-05-10T07:49:16.055Z,18.90
2023-05-10T07:51:43.500Z,19.00
2023-05-10T07:54:10.463Z,19.00
2023-05-10T07:56:37.405Z,19.00
2023-05-10T07:59:07.354Z,19.10
2023-05-10T08:01:35.545Z,19.10
2023-05-10T08:04:03.255Z,19.20
2023-05-10T08:06:31.059Z,19.30
2023-05-10T08:08:58.197Z,19.40
2023-05-10T08:11:25.738Z,19.40
2023-05-10T08:13:52.857Z,19.50
2023-05-10T08:16:19.821Z,19.60
2023-05-10T08:18:47.957Z,19.70
2023-05-10T08:21:15.777Z,19.70
2023-05-10T08:23:44.572Z,19.80
2023-05-10T08:26:11.759Z,19.90
2023-05-10T08:28:38.774Z,20.00
2023-05-10T08:31:06.256Z,20.10
2023-05-10T08:33:33.362Z,20.10
2023-05-10T08:36:00.301Z,20.20
2023-05-10T08:38:27.169Z,20.20
2023-05-10T08:40:59.646Z,20.20
2023-05-10T08:43:30.938Z,20.30
2023-05-10T08:46:02.321Z,20.40
2023-05-10T08:48:31.787Z,20.50
2023-05-10T08:51:01.003Z,20.60
2023-05-10T08:53:29.829Z,20.60
2023-05-10T08:55:56.824Z,20.60
2023-05-10T08:58:23.858Z,20.60
2023-05-10T09:00:53.988Z,20.70
2023-05-10T09:03:21.124Z,20.70
2023-05-10T09:05:49.490Z,20.80
2023-05-10T09:08:17.390Z,20.90
2023-05-10T09:10:49.306Z,21.00
2023-05-10T09:13:16.740Z,21.10
2023-05-10T09:15:45.709Z,21.20
2023-05-10T09:18:13.236Z,21.20
2023-05-10T09:20:40.331Z,21.40
2023-05-10T09:23:07.860Z,21.40
2023-05-10T09:25:34.807Z,21.50
2023-05-10T09:28:01.726Z,21.60
2023-05-10T09:30:31.609Z,21.70
2023-05-10T09:33:00.817Z,21.80
2023-05-10T09:35:31.227Z,21.90
2023-05-10T09:38:05.145Z,21.90
2023-05-10T09:40:32.653Z,22.00
2023-05-10T09:43:11.778Z,22.10
2023-05-10T09:45:39.303Z,22.20
2023-05-10T09:48:07.030Z,22.20
2023-05-10T09:50:35.111Z,22.20
2023-05-10T09:53:04.544Z,22.30
2023-05-10T09:55:42.355Z,22.40
2023-05-10T09:58:11.827Z,22.50
2023-05-10T10:00:41.827Z,22.50
2023-05-10T10:03:18.049Z,22.50
2023-05-10T10:05:47.144Z,22.50
2023-05-10T10:08:14.902Z,22.60
2023-05-10T10:10:42.449Z,22.60
2023-05-10T10:13:09.639Z,22.60
2023-05-10T10:15:36.970Z,22.70
2023-05-10T10:18:07.570Z,22.70
2023-05-10T10:20:34.772Z,22.80
2023-05-10T10:23:01.656Z,22.80
2023-05-10T10:25:28.563Z,23.00
2023-05-10T10:27:55.386Z,23.00
2023-05-10T10:30:43.551Z,23.00
2023-05-10T10:33:37.739Z,23.10
2023-05-10T10:36:05.689Z,23.30
2023-05-10T10:38:48.136Z,23.30
2023-05-10T10:41:41.972Z,23.40
2023-05-10T10:44:24.495Z,23.50
2023-05-10T10:47:13.281Z,23.60
2023-05-10T10:49:49.816Z,23.60
2023-05-10T10:52:24.093Z,23.60
2023-05-10T10:55:03.989Z,23.60
2023-05-10T10:57:41.214Z,23.60
2023-05-10T11:00:25.125Z,23.60
2023-05-10T11:03:15.601Z,23.60
2023-05-10T11:05:50.314Z,23.60
2023-05-10T11:08:30.964Z,23.60
2023-05-10T11:11:00.685Z,23.60
2023-05-10T11:13:47.718Z,23.60
2023-05-10T11:16:24.767Z,23.70
2023-05-10T11:19:06.918Z,23.80
2023-05-10T11:21:35.318Z,24.00
2023-05-10T11:24:06.886Z,24.00
2023-05-10T11:26:36.758Z,24.00
2023-05-10T11:29:05.846Z,24.00
2023-05-10T11:31:32.732Z,24.10
2023-05-10T11:34:02.718Z,24.20
2023-05-10T11:36:34.421Z,24.30
2023-05-10T11:39:01.405Z,24.40
2023-05-10T11:41:31.020Z,24.40
2023-05-10T11:43:59.429Z,24.50
2023-05-10T11:46:28.525Z,24.60
2023-05-10T11:49:02.882Z,24.70
2023-05-10T11:51:30.173Z,24.80
2023-05-10T11:53:58.181Z,24.90
2023-05-10T11:56:27.097Z,24.80
2023-05-10T11:58:57.262Z,24.80
2023-05-10T12:01:28.726Z,24.80
2023-05-10T12:04:00.553Z,24.80
2023-05-10T12:06:33.144Z,24.70
2023-05-10T12:09:00.580Z,24.80
2023-05-10T12:11:29.476Z,24.80
2023-05-10T12:13:57.535Z,24.80
2023-05-10T12:16:29.499Z,24.80
2023-05-10T12:19:01.404Z,24.80
2023-05-10T12:21:31.365Z,24.70
2023-05-10T12:24:04.061Z,24.80
2023-05-10T12:26:31.095Z,24.80
2023-05-10T12:29:18.050Z,24.90
2023-05-10T12:31:56.585Z,24.90
2023-05-10T12:34:33.102Z,25.00
2023-05-10T12:37:00.701Z,25.00
2023-05-10T12:39:39.618Z,24.90
2023-05-10T12:42:07.165Z,24.90
2023-05-10T12:44:34.060Z,25.00
2023-05-10T12:47:00.901Z,25.00
2023-05-10T12:49:27.896Z,25.10
2023-05-10T12:51:54.795Z,25.00
2023-05-10T12:54:21.631Z,25.00
2023-05-10T12:56:48.464Z,25.00
2023-05-10T12:59:15.303Z,25.10
2023-05-10T13:01:42.283Z,25.20
2023-05-10T13:04:09.261Z,25.20
2023-05-10T13:06:36.132Z,25.20
2023-05-10T13:09:03.374Z,25.30
2023-05-10T13:11:30.357Z,25.30
2023-05-10T13:13:57.199Z,25.40
2023-05-10T13:16:24.109Z,25.40
2023-05-10T13:18:51.610Z,25.40
2023-05-10T13:21:18.515Z,25.30
2023-05-10T13:23:45.388Z,25.30
2023-05-10T13:26:12.226Z,25.30
2023-05-10T13:28:39.773Z,25.30
2023-05-10T13:31:06.669Z,25.40
2023-05-10T13:33:33.560Z,25.40
2023-05-10T13:36:00.437Z,25.50
2023-05-10T13:38:27.315Z,25.50
2023-05-10T13:40:54.258Z,25.50
2023-05-10T13:43:21.193Z,25.50
2023-05-10T13:45:48.152Z,25.50
2023-05-10T13:48:15.069Z,25.50
2023-05-10T13:50:42.015Z,25.50
2023-05-10T13:53:08.886Z,25.60
2023-05-10T13:55:36.093Z,25.60
2023-05-10T13:58:02.981Z,25.70
2023-05-10T14:00:29.895Z,25.70
2023-05-10T14:02:56.791Z,25.80
2023-05-10T14:05:26.200Z,25.80
2023-05-10T14:07:53.394Z,25.90
2023-05-10T14:10:20.299Z,25.90
2023-05-10T14:12:47.159Z,25.90
2023-05-10T14:15:14.048Z,26.00
2023-05-10T14:17:40.959Z,25.90
2023-05-10T14:20:09.336Z,25.90
2023-05-10T14:22:36.437Z,25.90
2023-05-10T14:25:03.550Z,26.00
2023-05-10T14:27:31.334Z,25.90
2023-05-10T14:29:58.307Z,26.00
2023-05-10T14:32:25.197Z,26.00
2023-05-10T14:34:52.054Z,26.10
2023-05-10T14:37:18.920Z,26.10
2023-05-10T14:39:45.771Z,26.10
2023-05-10T14:42:13.220Z,26.10
2023-05-10T14:44:40.649Z,26.00
2023-05-10T14:47:07.836Z,26.00
2023-05-10T14:49:35.726Z,26.00
2023-05-10T14:52:02.611Z,26.10
2023-05-10T14:54:29.475Z,26.20
2023-05-10T14:56:56.315Z,26.20
2023-05-10T14:59:23.189Z,26.30
2023-05-10T15:01:50.412Z,26.30
2023-05-10T15:04:17.866Z,26.40
2023-05-10T15:06:45.464Z,26.40
2023-05-10T15:09:12.313Z,26.50
2023-05-10T15:11:39.225Z,26.50
2023-05-10T15:14:06.087Z,26.60
2023-05-10T15:16:35.702Z,26.60
2023-05-10T15:19:03.110Z,26.70
2023-05-10T15:21:31.726Z,26.70
2023-05-10T15:23:58.613Z,26.70
2023-05-10T15:26:27.204Z,26.70
2023-05-10T15:28:54.157Z,26.80
2023-05-10T15:31:21.120Z,26.80
2023-05-10T15:33:48.092Z,26.80
2023-05-10T15:36:14.970Z,26.80
2023-05-10T15:38:41.858Z,26.80
2023-05-10T15:41:08.735Z,26.80
2023-05-10T15:43:35.621Z,26.80
2023-05-10T15:46:02.588Z,26.80
2023-05-10T15:48:32.232Z,26.80
2023-05-10T15:50:59.195Z,26.80
2023-05-10T15:53:26.097Z,26.80
2023-05-10T15:55:53.021Z,26.80
2023-05-10T15:58:19.972Z,26.70
2023-05-10T16:00:47.073Z,26.60
2023-05-10T16:03:14.018Z,26.60
2023-05-10T16:05:41.092Z,26.50
2023-05-10T16:08:08.010Z,26.60
2023-05-10T16:10:34.926Z,26.60
2023-05-10T16:13:03.688Z,26.70
2023-05-10T16:15:30.593Z,26.70
2023-05-10T16:17:58.030Z,26.70
2023-05-10T16:20:25.227Z,26.70
2023-05-10T16:22:52.126Z,26.70
2023-05-10T16:25:19.271Z,26.80
2023-05-10T16:27:46.396Z,26.80
2023-05-10T16:30:13.389Z,26.80
2023-05-10T16:32:40.270Z,26.80
2023-05-10T16:35:08.153Z,26.90
2023-05-10T16:37:35.829Z,26.90
2023-05-10T16:40:03.051Z,27.00
2023-05-10T16:42:30.480Z,27.20
2023-05-10T16:44:57.491Z,27.40
2023-05-10T16:47:26.721Z,27.60
2023-05-10T16:49:53.819Z,27.80
2023-05-10T16:52:20.711Z,27.90
2023-05-10T16:54:47.589Z,28.10
2023-05-10T16:57:14.475Z,28.30
2023-05-10T16:59:41.411Z,28.50
2023-05-10T17:02:08.409Z,28.60
2023-05-10T17:04:35.518Z,28.70
2023-05-10T17:07:02.426Z,28.80
2023-05-10T17:09:29.355Z,28.80
2023-05-10T17:11:56.375Z,29.00
2023-05-10T17:14:23.438Z,29.00
2023-05-10T17:16:52.669Z,29.20
2023-05-10T17:19:19.756Z,29.20
2023-05-10T17:21:46.733Z,29.20
2023-05-10T17:24:14.282Z,29.20
2023-05-10T17:26:41.832Z,29.10
2023-05-10T17:29:08.857Z,28.90
2023-05-10T17:31:35.759Z,28.70
2023-05-10T17:34:05.475Z,28.40
2023-05-10T17:36:33.340Z,28.20
2023-05-10T17:39:00.922Z,27.90
2023-05-10T17:41:27.900Z,27.70
2023-05-10T17:43:55.354Z,27.50
2023-05-10T17:46:22.388Z,27.30
2023-05-10T17:48:49.435Z,27.10
2023-05-10T17:51:16.336Z,26.90
2023-05-10T17:53:43.232Z,26.70
2023-05-10T17:56:10.122Z,26.50
2023-05-10T17:58:38.314Z,26.40
2023-05-10T18:01:05.737Z,26.40
2023-05-10T18:03:32.942Z,26.20
2023-05-10T18:06:00.066Z,26.10
2023-05-10T18:08:28.663Z,26.00
2023-05-10T18:10:55.580Z,25.90
2023-05-10T18:13:22.492Z,25.70
2023-05-10T18:15:49.365Z,25.60
2023-05-10T18:18:17.355Z,25.50
2023-05-10T18:20:46.146Z,25.30
2023-05-10T18:23:14.182Z,25.20
2023-05-10T18:25:41.056Z,25.10
2023-05-10T18:28:08.620Z,25.00
2023-05-10T18:30:35.490Z,24.90
2023-05-10T18:33:02.659Z,24.80
2023-05-10T18:35:29.601Z,24.70
2023-05-10T18:37:56.506Z,24.60
2023-05-10T18:40:23.357Z,24.60
2023-05-10T18:42:50.590Z,24.40
2023-05-10T18:45:17.747Z,24.30
2023-05-10T18:47:44.860Z,24.20
2023-05-10T18:50:12.817Z,24.20
2023-05-10T18:52:39.732Z,24.20
2023-05-10T18:55:08.432Z,24.10
2023-05-10T18:57:41.412Z,24.00
2023-05-10T19:00:12.304Z,24.00
2023-05-10T19:02:40.198Z,24.00
2023-05-10T19:05:08.162Z,23.90
2023-05-10T19:07:35.938Z,23.90
2023-05-10T19:10:03.297Z,23.90
2023-05-10T19:12:30.928Z,23.90
2023-05-10T19:14:57.835Z,23.80
2023-05-10T19:17:24.774Z,23.80
2023-05-10T19:19:51.677Z,23.70
2023-05-10T19:22:28.337Z,23.70
2023-05-10T19:25:04.529Z,23.70
2023-05-10T19:27:32.232Z,23.60
2023-05-10T19:29:59.115Z,23.60
2023-05-10T19:32:26.248Z,23.60
2023-05-10T19:34:53.147Z,23.50
2023-05-10T19:37:20.013Z,23.40
2023-05-10T19:39:47.246Z,23.40
2023-05-10T19:42:14.210Z,23.30
2023-05-10T19:44:41.184Z,23.20
2023-05-10T19:47:09.130Z,23.10
2023-05-10T19:49:39.138Z,23.00
2023-05-10T19:52:07.885Z,22.90
2023-05-10T19:54:34.792Z,22.90
2023-05-10T19:57:01.762Z,22.80
2023-05-10T19:59:28.755Z,22.60
2023-05-10T20:01:55.879Z,22.60
2023-05-10T20:04:23.048Z,22.50
2023-05-10T20:06:49.976Z,22.50
2023-05-10T20:09:16.869Z,22.40
2023-05-10T20:11:43.773Z,22.30
2023-05-10T20:14:10.955Z,22.30
2023-05-10T20:16:37.909Z,22.20
2023-05-10T20:19:05.017Z,22.20
2023-05-10T20:21:33.474Z,22.10
2023-05-10T20:24:00.384Z,22.10
2023-05-10T20:26:27.275Z,22.00
2023-05-10T20:28:54.164Z,22.00
2023-05-10T20:31:21.096Z,21.90
2023-05-10T20:33:48.010Z,21.80
2023-05-10T20:36:14.975Z,21.80
2023-05-10T20:38:41.911Z,21.70
2023-05-10T20:41:08.852Z,21.60
2023-05-10T20:43:35.806Z,21.60
2023-05-10T20:46:05.464Z,21.50
2023-05-10T20:48:33.101Z,21.50
2023-05-10T20:51:02.072Z,21.40
2023-05-10T20:53:29.674Z,21.40
2023-05-10T20:55:56.581Z,21.30
2023-05-10T20:58:23.486Z,21.30
2023-05-10T21:00:50.467Z,21.10
2023-05-10T21:03:17.370Z,21.10
2023-05-10T21:05:44.311Z,21.00
2023-05-10T21:08:11.210Z,21.00
2023-05-10T21:10:38.094Z,20.90
2023-05-10T21:13:05.236Z,20.90
2023-05-10T21:15:32.122Z,20.80
2023-05-10T21:17:59.898Z,20.70
2023-05-10T21:20:26.947Z,20.70
2023-05-10T21:22:53.852Z,20.60
2023-05-10T21:25:22.084Z,20.60
2023-05-10T21:27:49.069Z,20.50
2023-05-10T21:30:16.266Z,20.50
2023-05-10T21:32:43.340Z,20.30
2023-05-10T21:35:10.395Z,20.20
2023-05-10T21:37:37.275Z,20.20
2023-05-10T21:40:04.727Z,20.10
2023-05-10T21:42:32.127Z,20.00
2023-05-10T21:44:59.092Z,19.90
2023-05-10T21:47:26.008Z,19.80
2023-05-10T21:49:52.895Z,19.80
2023-05-10T21:52:19.788Z,19.70
2023-05-10T21:54:46.766Z,19.60
2023-05-10T21:57:13.656Z,19.60
2023-05-10T21:59:40.598Z,19.50
2023-05-10T22:02:07.724Z,19.50
2023-05-10T22:04:34.868Z,19.40
2023-05-10T22:07:01.768Z,19.40
2023-05-10T22:09:28.702Z,19.40
2023-05-10T22:11:55.616Z,19.30
2023-05-10T22:14:23.029Z,19.30
2023-05-10T22:16:50.046Z,19.20
2023-05-10T22:19:16.974Z,19.20
2023-05-10T22:21:43.915Z,19.10
2023-05-10T22:24:10.811Z,19.10
2023-05-10T22:26:37.703Z,19.00
2023-05-10T22:29:04.592Z,19.00
2023-05-10T22:31:31.742Z,18.90
2023-05-10T22:33:58.776Z,18.80
2023-05-10T22:36:25.673Z,18.80
2023-05-10T22:38:52.549Z,18.70
2023-05-10T22:41:19.431Z,18.70
2023-05-10T22:43:46.432Z,18.60
2023-05-10T22:46:13.463Z,18.60
2023-05-10T22:48:41.436Z,18.50
2023-05-10T22:51:08.347Z,18.50
2023-05-10T22:53:35.505Z,18.40
2023-05-10T22:56:02.647Z,18.40
2023-05-10T22:58:29.570Z,18.30
2023-05-10T23:00:56.503Z,18.30
2023-05-10T23:03:23.448Z,18.20
2023-05-10T23:05:50.346Z,18.20
2023-05-10T23:08:17.477Z,18.10
2023-05-10T23:10:44.390Z,18.10
2023-05-10T23:13:11.276Z,18.00
2023-05-10T23:15:40.057Z,18.00
2023-05-10T23:18:06.992Z,17.90
2023-05-10T23:20:33.909Z,17.90
2023-05-10T23:23:00.811Z,17.80
2023-05-10T23:25:27.768Z,17.70
2023-05-10T23:27:54.700Z,17.70
2023-05-10T23:30:21.651Z,17.60
2023-05-10T23:32:48.575Z,17.60
2023-05-10T23:35:15.564Z,17.60
2023-05-10T23:37:42.997Z,17.50
2023-05-10T23:40:10.302Z,17.50
2023-05-10T23:42:37.226Z,17.40
2023-05-10T23:45:04.624Z,17.40
2023-05-10T23:47:31.531Z,17.40
2023-05-10T23:49:58.513Z,17.40
2023-05-10T23:52:25.610Z,17.30
2023-05-10T23:54:53.433Z,17.30
2023-05-10T23:57:20.817Z,17.30
2023-05-10T23:59:47.802Z,17.20
